Main page
METAR-TAF:

METAR-TAF

Airports :

Pago Pago, United States Minor Outlying Islands

Pago Pago International Airport

latitude: 14-20S, longitude: 170-43W, elevation: 3 m

Current weather observation

The report was made 41 minutes ago, at 09:51 UTC
Wind 15 kt from the East/Southeast
Temperature 28°C
Humidity 89%
Pressure 1014 hPa
Visibility: 16.1 km
Few clouds at a height of 12000 ft

METAR: NSTU 280951Z 11015KT 10SM FEW120 28/26 A2995 RMK SLP144 T02830255

Time: 23:32 (10:32 UTC)

Forecast

The report was made 4 hours and 57 minutes ago, at 05:35 UTC
Forecast valid from 28 at 06 UTC to 29 at 06 UTC
Wind 15 kt from the East
Visibility: 10 km
Few clouds at a height of 2500 ft

TAF: NSTU 280535Z 2806/2906 10015KT P6SM FEW025

Weather observations and forecasts of more than 4000 airports (METAR and TAF reports).

The available stations are represented by yellow and red dots on the map.

Hover mouse over dot to see the name of the station.

Then click to see weather observations and forecasts.

To change the map : click on the green buttons with a black cross to zoom in, on the green button with a dash to zoom out, or on the green arrows for adjacent maps.


METAR-TAF: